Tiempo atmosférico en la estación meteorológica de Piornal, Cáceres (1175 m.)



Fecha
DESCASC
Temp. máxima en grados centígrados (hora)
DESCASC
Temp. mínima en grados centígrados (hora)
DESCASC
Temp. media en grados centígrados
DESCASC
Racha de viento máxima en m/sg (hora)
DESCASC
Velocidad máxima media en intervalos de 10 minutos(hora)
DESCASC
Precipitaciones diarias en mm
DESCASC
Precipitaciones de 00:00 a 06:00 en mm
DESCASC
Precipitaciones de 06:00 a 12:00 en mm
DESCASC
Precipitaciones de 12:00 a 18:00 en mm
DESCASC
Precipitaciones de 18:00 a 24:00 en mm
DESCASC
28-02-2021 8.8 (15:10) 4.5 (07:50) 6.7 11.11 (12:40) 6.11 (13:00) 0 0 0 0 0
27-02-2021 14.4 (15:10) 5.1 (07:20) 9.7 8.89 (03:10) 5.28 (03:20) 0 0 0 0 0
26-02-2021 9.9 (14:10) 4.4 (08:10) 7.1 12.78 (02:50) 7.22 (05:00) 0 0 0 0 0
25-02-2021 7.2 (23:40) 3.5 (00:00) 5.3 11.39 (10:50) 6.39 (12:30) 0 0 0 0 0
24-02-2021 10.2 (16:10) 2.5 (00:00) 6.3 15 (01:40) 8.33 (09:20) 0 0 0 0 0
23-02-2021 8.3 (15:50) 0.4 (00:00) 4.4 13.61 (15:50) 7.22 (16:10) 0 0 0 0 0
22-02-2021 9.1 (15:20) -1.3 (-00:0) 3.9 16.11 (01:20) 9.72 (03:50) 0 0 0 0 0
21-02-2021 7.9 (02:40) 0.5 (00:00) 4.2 16.67 (23:40) 10 (23:40) 32.2 0 13.2 17 2
20-02-2021 8.1 (17:00) 4.4 (00:00) 6.3 15 (08:30) 7.78 (22:30) 0 0 0 0 0
19-02-2021 11.9 (14:40) 3.7 (00:00) 7.8 13.33 (13:10) 6.11 (12:20) 0 0 0 0 0
18-02-2021 10.7 (14:10) 2.5 (00:00) 6.6 9.72 (13:40) 5 (14:40) 0 0 0 0 0
17-02-2021 13.1 (15:30) 4.9 (00:00) 9 6.94 (15:50) 3.06 (12:30) 0 0 0 0 0
16-02-2021 11.6 (15:20) 5.5 (00:00) 8.6 15.83 (02:50) 8.33 (01:30) 0 0 0 0 0
15-02-2021 9.4 (16:20) 3.4 (00:00) 6.4 18.33 (23:40) 9.17 (23:40) 0 0 0 0 0
14-02-2021 10.4 (16:30) 5.3 (00:00) 7.8 9.72 (11:40) 5.28 (11:40) 0 0 0 0 0
13-02-2021 13.2 (16:00) 2.5 (00:00) 7.8 8.61 (12:20) 5 (12:30) 0 0 0 0 0
12-02-2021 8.7 (15:50) 3.1 (00:00) 5.9 13.33 (04:50) 8.06 (04:30) 16.4 16.4 0 0 0
11-02-2021 8.8 (15:40) 5.3 (00:00) 7.1 8.06 (23:59) 3.89 (23:59) 16.6 3.2 3.2 6.6 3.6
10-02-2021 8.1 (15:20) 2.4 (00:00) 5.3 20.83 (03:10) 10.83 (03:10) 8.2 7.8 0.4 0 0
09-02-2021 5 (12:40) 2.1 (00:00) 3.5 18.61 (13:00) 9.72 (13:10) 75.2 9.2 51 13.8 1.2
08-02-2021 4.3 (04:00) 1.2 (00:00) 2.8 12.78 (15:40) 7.22 (16:40) 39.6 33.2 6.2 0.2 0
07-02-2021 6.5 (13:20) 0.2 (00:00) 3.4 8.89 (23:30) 5.28 (15:20) 10 0 0 1.4 8.6
06-02-2021 6 (15:00) 2 (00:00) 4 6.67 (02:00) 3.06 (01:00) 33.2 21.4 4.6 7 0.2
05-02-2021 7 (13:50) 3.8 (00:00) 5.4 13.06 (04:50) 7.22 (03:20) 18 3.4 6.4 1.2 7
04-02-2021 6 (15:40) 4 (00:00) 5 10.28 (10:00) 5.28 (09:30) 47.8 1.8 12 29.6 4.4
03-02-2021 7.2 (17:10) 4.7 (00:00) 5.9 9.17 (17:50) 3.61 (15:20) 50.2 8.6 16 13 12.6
02-02-2021 7 (15:10) 4.9 (00:00) 6 7.78 (04:20) 4.17 (03:50) 10.2 3 4.4 2.4 0.4
01-02-2021 9.2 (13:40) 3.9 (00:00) 6.5 12.78 (00:30) 6.94 (00:30) 0 0 0 0 0
31-01-2021 8.7 (17:40) 2.8 (00:00) 5.7 18.33 (01:40) 8.06 (03:00) 13 0 3.2 7.6 2.2
30-01-2021 6.8 (14:50) 3.3 (00:00) 5.1 18.33 (20:40) 9.17 (06:40) 14.2 13.6 0.6 0 0

Gráficas

Temp. máximas Temp. mínimas Temp. medias Precipitaciones Rachas de viento máximas Velocidades máximas media en intervalos de 10 minutos

Datos horarios

Fecha y hora oficial Temperatura (ºC) Velocidad del viento (km/h) Dirección del viento Racha (km/h) Dirección de racha Precipitación (mm) Presión (hPa) Tendencia (hPa) Humedad (%)
2021-02-28 23:00:00 5.6 17 Este 36 Este 0 -- -- 84
2021-02-28 22:00:00 5.8 14 Este 24 Este 0 -- -- 83
2021-02-28 21:00:00 5.4 13 Este 24 Este 0 -- -- 86
2021-02-28 20:00:00 5.6 12 Este 21 Este 0 -- -- 85
2021-02-28 19:00:00 6.4 11 Este 24 Este 0 -- -- 83
2021-02-28 18:00:00 7.7 14 Este 28 Este 0 -- -- 78
2021-02-28 17:00:00 8.5 14 Este 33 Este 0 -- -- 75
2021-02-28 16:00:00 8.5 18 Este 36 Este 0 -- -- 74
2021-02-28 15:00:00 8.6 18 Este 34 Este 0 -- -- 74
2021-02-28 14:00:00 7.8 19 Este 37 Este 0 -- -- 78
2021-02-28 13:00:00 6.7 22 Este 40 Este 0 -- -- 82
2021-02-28 12:00:00 6.4 19 Este 34 Este 0 -- -- 82
2021-02-28 11:00:00 6.2 15 Este 31 Este 0 -- -- 80
2021-02-28 10:00:00 5.5 17 Este 35 Este 0 -- -- 78
2021-02-28 09:00:00 4.9 18 Este 37 Este 0 -- -- 80
2021-02-28 08:00:00 4.5 17 Este 33 Este 0 -- -- 78
2021-02-28 07:00:00 5.6 13 Este 31 Este 0 -- -- 72
2021-02-28 06:00:00 6.2 16 Este 30 Este 0 -- -- 71
2021-02-28 05:00:00 6.4 15 Este 30 Este 0 -- -- 67
2021-02-28 04:00:00 6.5 14 Este 23 Este 0 -- -- 62
2021-02-28 03:00:00 6.4 7 Este 12 Este 0 -- -- 59
2021-02-28 02:00:00 6.2 7 Este 11 Este 0 -- -- 59
2021-02-28 01:00:00 7.6 6 Este 8 Este 0 -- -- 60
2021-02-28 00:00:00 7.9 5 Nordeste 8 Nordeste 0 -- -- 66
2021-02-27 23:00:00 8.1 4 Nordeste 8 Este 0 -- -- 67
2021-02-27 22:00:00 8.2 4 Nordeste 10 Este 0 -- -- 68
2021-02-27 21:00:00 8.6 7 Nordeste 11 Nordeste 0 -- -- 69
2021-02-27 20:00:00 9 5 Norte 10 Nordeste 0 -- -- 67
2021-02-27 19:00:00 10.5 2 Este 9 Este 0 -- -- 68
2021-02-27 18:00:00 12.7 4 Nordeste 12 Este 0 -- -- 62
2021-02-27 17:00:00 13.6 4 Nordeste 13 Este 0 -- -- 56
2021-02-27 16:00:00 13.5 6 Este 16 Este 0 -- -- 55
2021-02-27 15:00:00 14.3 8 Nordeste 14 Nordeste 0 -- -- 36
2021-02-27 14:00:00 13.2 8 Este 21 Este 0 -- -- 50
2021-02-27 13:00:00 12.3 12 Nordeste 24 Nordeste 0 -- -- 51
2021-02-27 12:00:00 11.2 12 Este 22 Este 0 -- -- 51
2021-02-27 11:00:00 10.7 9 Este 17 Este 0 -- -- 55
2021-02-27 10:00:00 8.6 6 Este 17 Nordeste 0 -- -- 61
2021-02-27 09:00:00 6.9 11 Este 21 Este 0 -- -- 66
2021-02-27 08:00:00 5.3 12 Este 22 Este 0 -- -- 77
2021-02-27 07:00:00 5.3 13 Este 22 Este 0 -- -- 79
2021-02-27 06:00:00 5.2 11 Nordeste 22 Nordeste 0 -- -- 81
2021-02-27 05:00:00 6 10 Este 20 Este 0 -- -- 77
2021-02-27 04:00:00 6.1 12 Este 32 Este 0 -- -- 77
2021-02-27 03:00:00 6.6 17 Este 31 Este 0 -- -- 79
2021-02-27 02:00:00 7.5 14 Este 27 Este 0 -- -- 75
2021-02-27 01:00:00 7.4 12 Este 28 Este 0 -- -- 77
2021-02-27 00:00:00 7.7 14 Este 31 Este 0 -- -- 77
2021-02-26 23:00:00 7.5 13 Este 24 Este 0 -- -- 78
2021-02-26 22:00:00 7.1 12 Este 22 Nordeste 0 -- -- 88
2021-02-26 21:00:00 7 10 Este 18 Este 0 -- -- 94
2021-02-26 20:00:00 8.6 5 Nordeste 10 Nordeste 0 -- -- 77
2021-02-26 19:00:00 8.4 4 Nordeste 15 Este 0 -- -- 83
2021-02-26 18:00:00 8.6 9 Nordeste 20 Nordeste 0 -- -- 84
2021-02-26 17:00:00 8.8 12 Este 24 Este 0 -- -- 84
2021-02-26 16:00:00 9.4 15 Este 27 Nordeste 0 -- -- 83
2021-02-26 15:00:00 9.1 14 Este 24 Este 0 -- -- 83
2021-02-26 14:00:00 9.6 14 Este 25 Este 0 -- -- 66
2021-02-26 13:00:00 7.9 13 Este 26 Este 0 -- -- 81
2021-02-26 12:00:00 6.1 16 Este 36 Este 0 -- -- 97
2021-02-26 11:00:00 5.2 18 Este 34 Este 0 -- -- 100
2021-02-26 10:00:00 4.7 18 Este 34 Este 0 -- -- 100
2021-02-26 09:00:00 4.4 18 Este 35 Este 0 -- -- 100
2021-02-26 08:00:00 4.5 21 Este 39 Este 0 -- -- 100
2021-02-26 07:00:00 4.7 22 Este 41 Este 0 -- -- 100
2021-02-26 06:00:00 5 24 Este 41 Este 0 -- -- 100
2021-02-26 05:00:00 5.4 26 Este 44 Este 0 -- -- 98
2021-02-26 04:00:00 6 19 Este 42 Este 0 -- -- 91
2021-02-26 03:00:00 6.7 24 Este 46 Este 0 -- -- 88
2021-02-26 02:00:00 7.1 21 Este 42 Este 0 -- -- 87
2021-02-26 01:00:00 7.3 15 Este 42 Este 0 -- -- 86
2021-02-26 00:00:00 7.2 10 Este 31 Este 0 -- -- 85
2021-02-25 23:00:00 6.8 14 Este 35 Este 0 -- -- 84
2021-02-25 22:00:00 6.2 15 Este 36 Este 0 -- -- 84
2021-02-25 21:00:00 5.7 16 Este 28 Este 0 -- -- 93
2021-02-25 20:00:00 5.4 15 Este 27 Este 0 -- -- 96
2021-02-25 19:00:00 5.4 15 Este 27 Este 0 -- -- 97
2021-02-25 18:00:00 5.7 15 Este 26 Este 0 -- -- 96
2021-02-25 17:00:00 6.2 13 Este 24 Este 0 -- -- 96
2021-02-25 16:00:00 7.1 12 Este 26 Este 0 -- -- 90
2021-02-25 15:00:00 6.8 14 Este 33 Este 0 -- -- 89
2021-02-25 14:00:00 6.8 18 Este 33 Nordeste 0 -- -- 86
2021-02-25 13:00:00 6.4 20 Este 37 Este 0 -- -- 88
2021-02-25 12:00:00 5.6 18 Este 39 Este 0 -- -- 91
2021-02-25 11:00:00 4 20 Este 41 Este 0 -- -- 98
2021-02-25 10:00:00 3.8 21 Este 39 Este 0 -- -- 98
2021-02-25 09:00:00 3.7 20 Este 37 Este 0 -- -- 98
2021-02-25 08:00:00 3.6 19 Este 39 Este 0 -- -- 99
2021-02-25 07:00:00 3.6 16 Este 34 Este 0 -- -- 100
2021-02-25 06:00:00 3.7 19 Este 37 Este 0 -- -- 100
2021-02-25 05:00:00 4.1 19 Este 38 Este 0 -- -- 97
2021-02-25 04:00:00 4.9 18 Este 34 Sudeste 0 -- -- 92
2021-02-25 03:00:00 5.3 19 Este 36 Este 0 -- -- 89
2021-02-25 02:00:00 5.7 17 Este 31 Este 0 -- -- 87
2021-02-25 01:00:00 6.2 18 Este 37 Este 0 -- -- 86
2021-02-25 00:00:00 6.7 19 Este 38 Este 0 -- -- 86
2021-02-24 23:00:00 7.2 16 Este 36 Este 0 -- -- 85
2021-02-24 22:00:00 7.7 15 Este 37 Este 0 -- -- 83
2021-02-24 21:00:00 7.5 19 Este 34 Este 0 -- -- 80
2021-02-24 20:00:00 7.4 18 Este 30 Sudeste 0 -- -- 79
2021-02-24 19:00:00 7.6 15 Este 31 Este 0 -- -- 78
2021-02-24 18:00:00 8.6 18 Este 39 Este 0 -- -- 76
2021-02-24 17:00:00 9.7 20 Este 45 Este 0 -- -- 68
2021-02-24 16:00:00 10.1 23 Este 45 Este 0 -- -- 63
2021-02-24 15:00:00 9.7 24 Este 53 Este 0 -- -- 68
2021-02-24 14:00:00 8.6 24 Este 47 Este 0 -- -- 78
2021-02-24 13:00:00 7.9 24 Este 44 Este 0 -- -- 81
2021-02-24 12:00:00 6.5 28 Este 44 Este 0 -- -- 87
2021-02-24 11:00:00 5.5 26 Este 48 Este 0 -- -- 88
2021-02-24 10:00:00 4.5 25 Este 49 Este 0 -- -- 90
2021-02-24 09:00:00 2.9 27 Este 48 Este 0 -- -- 98
2021-02-24 08:00:00 2.8 24 Este 46 Este 0 -- -- 95
2021-02-24 07:00:00 2.8 23 Este 46 Este 0 -- -- 96
2021-02-24 06:00:00 2.9 25 Este 46 Este 0 -- -- 95
2021-02-24 05:00:00 3.5 18 Este 36 Este 0 -- -- 91
2021-02-24 04:00:00 3.7 19 Este 42 Este 0 -- -- 89
2021-02-24 03:00:00 4.1 27 Este 51 Este 0 -- -- 87
2021-02-24 02:00:00 4.6 24 Este 54 Este 0 -- -- 84
2021-02-24 01:00:00 4.8 21 Este 43 Este 0 -- -- 84
2021-02-24 00:00:00 5.1 20 Este 40 Este 0 -- -- 83
2021-02-23 23:00:00 5.2 18 Este 48 Este 0 -- -- 81
2021-02-23 22:00:00 5.4 19 Este 40 Este 0 -- -- 76
2021-02-23 21:00:00 5.3 21 Este 39 Este 0 -- -- 74
2021-02-23 20:00:00 5.3 23 Este 42 Nordeste 0 -- -- 73
2021-02-23 19:00:00 6.1 20 Este 43 Este 0 -- -- 68
2021-02-23 18:00:00 7.2 22 Este 44 Este 0 -- -- 60
2021-02-23 17:00:00 8 22 Este 48 Este 0 -- -- 56
2021-02-23 16:00:00 8.3 24 Este 49 Este 0 -- -- 58
2021-02-23 15:00:00 8.1 21 Este 41 Este 0 -- -- 58
2021-02-23 14:00:00 7.3 22 Este 41 Este 0 -- -- 58
2021-02-23 13:00:00 6.4 22 Este 42 Este 0 -- -- 68
2021-02-23 12:00:00 5.6 23 Este 42 Este 0 -- -- 67
2021-02-23 11:00:00 4.9 21 Este 43 Este 0 -- -- 68
2021-02-23 10:00:00 3.5 19 Este 36 Este 0 -- -- 72
2021-02-23 09:00:00 1.9 17 Este 30 Este 0 -- -- 74
2021-02-23 08:00:00 1.3 17 Este 31 Este 0 -- -- 66
2021-02-23 07:00:00 1.2 12 Este 24 Este 0 -- -- 74
2021-02-23 06:00:00 0.6 12 Este 21 Este 0 -- -- 81
2021-02-23 05:00:00 0.6 3 Sudeste 7 Este 0 -- -- 81
2021-02-23 04:00:00 0.8 2 Sudeste 11 Sudoeste 0 -- -- 79
2021-02-23 03:00:00 1.2 2 Sudeste 5 Este 0 -- -- 80
2021-02-23 02:00:00 1.3 2 Sur 8 Este 0 -- -- 78
2021-02-23 01:00:00 1.2 3 Nordeste 6 Nordeste 0 -- -- 81
2021-02-23 00:00:00 1.3 0 Calma 7 Este 0 -- -- 80
2021-02-22 23:00:00 1.7 2 Sur 8 Este 0 -- -- 81
2021-02-22 22:00:00 1.4 0 Calma 3 Este 0 -- -- 85
2021-02-22 21:00:00 1.7 2 Sudeste 5 Sudoeste 0 -- -- 85
2021-02-22 20:00:00 2.8 2 Sur 8 Sudoeste 0 -- -- 81
2021-02-22 19:00:00 4.7 5 Sudoeste 18 Sudoeste 0 -- -- 74
2021-02-22 18:00:00 7.1 7 Oeste 17 Sudoeste 0 -- -- 64
2021-02-22 17:00:00 7.9 11 Oeste 22 Oeste 0 -- -- 58
2021-02-22 16:00:00 8.6 12 Oeste 23 Oeste 0 -- -- 44
2021-02-22 15:00:00 9 6 Noroeste 21 Oeste 0 -- -- 36
2021-02-22 14:00:00 8.8 10 Noroeste 18 Oeste 0 -- -- 35
2021-02-22 13:00:00 8.1 9 Noroeste 17 Norte 0 -- -- 40
2021-02-22 12:00:00 5.4 6 Norte 22 Norte 0 -- -- 42
2021-02-22 11:00:00 3.7 10 Noroeste 21 Norte 0 -- -- 66
2021-02-22 10:00:00 1.1 11 Norte 31 Noroeste 0 -- -- 74
2021-02-22 09:00:00 -0.8 15 Noroeste 30 Noroeste 0 -- -- 84
2021-02-22 08:00:00 -1.1 22 Noroeste 47 Noroeste 0 -- -- 88
2021-02-22 07:00:00 -0.9 28 Noroeste 47 Noroeste 0 -- -- 87
2021-02-22 06:00:00 -0.6 28 Noroeste 48 Noroeste 0 -- -- 91
2021-02-22 05:00:00 -0.4 23 Noroeste 51 Noroeste 0 -- -- 92
2021-02-22 04:00:00 0.1 32 Noroeste 54 Noroeste 0 -- -- 90
2021-02-22 03:00:00 0.8 31 Noroeste 53 Noroeste 0 -- -- 92
2021-02-22 02:00:00 1 26 Noroeste 58 Norte 0 -- -- 91
2021-02-22 01:00:00 1.5 33 Noroeste 55 Noroeste 0 -- -- 95
2021-02-22 00:00:00 1.7 29 Noroeste 60 Noroeste 0 -- -- 93
2021-02-21 23:00:00 2 26 Noroeste 58 Noroeste 0.2 -- -- 93
2021-02-21 22:00:00 1.9 23 Noroeste 41 Noroeste 0 -- -- 94
2021-02-21 21:00:00 1.5 24 Noroeste 50 Oeste 0.2 -- -- 95
2021-02-21 20:00:00 1.2 20 Noroeste 42 Noroeste 0.6 -- -- 97
2021-02-21 19:00:00 1 23 Noroeste 41 Noroeste 1 -- -- 99
2021-02-21 18:00:00 0.6 21 Noroeste 45 Noroeste 0.8 -- -- 99
2021-02-21 17:00:00 2.1 13 Noroeste 23 Norte 1.4 -- -- 99
2021-02-21 16:00:00 2.7 7 Norte 12 Noroeste 2.6 -- -- 99
2021-02-21 15:00:00 3 3 Sudoeste 15 Sur 4 -- -- 98
2021-02-21 14:00:00 3.1 5 Sur 17 Sudoeste 5.4 -- -- 100
2021-02-21 13:00:00 3.7 5 Sudoeste 19 Este 2.8 -- -- 98
2021-02-21 12:00:00 3.5 0 Calma 11 Sudeste 2.2 -- -- 100
2021-02-21 11:00:00 4.1 9 Sur 32 Sudeste 6 -- -- 100
2021-02-21 10:00:00 4.8 14 Sudeste 52 Sudeste 2.8 -- -- 100
2021-02-21 09:00:00 4.8 20 Este 46 Sudeste 1.6 -- -- 100
2021-02-21 08:00:00 5.2 18 Sudeste 50 Sudeste 0.6 -- -- 95
2021-02-21 07:00:00 5.4 19 Este 50 Este 0 -- -- 86
2021-02-21 06:00:00 5.8 23 Este 52 Este 0 -- -- 73
2021-02-21 05:00:00 6.6 23 Este 49 Este 0 -- -- 65
2021-02-21 04:00:00 7.6 22 Sudeste 47 Este 0 -- -- 61
2021-02-21 03:00:00 7.7 23 Este 45 Este 0 -- -- 64
2021-02-21 02:00:00 7.8 21 Este 48 Sudeste 0 -- -- 62
2021-02-21 01:00:00 7.7 25 Este 49 Este 0 -- -- 62
2021-02-21 00:00:00 7.6 26 Este 47 Este 0 -- -- 62
2021-02-20 23:00:00 7.5 25 Este 52 Este 0 -- -- 59
2021-02-20 22:00:00 7.4 23 Este 48 Este 0 -- -- 51
2021-02-20 21:00:00 7.2 23 Este 45 Este 0 -- -- 52
2021-02-20 20:00:00 7.1 27 Este 44 Este 0 -- -- 57
2021-02-20 19:00:00 7.2 24 Este 48 Este 0 -- -- 60
2021-02-20 18:00:00 7.5 23 Este 50 Sudeste 0 -- -- 59
2021-02-20 17:00:00 8.1 18 Sudeste 44 Este 0 -- -- 56
2021-02-20 16:00:00 7.7 17 Sudeste 42 Este 0 -- -- 64
2021-02-20 15:00:00 7.9 19 Este 42 Este 0 -- -- 66
2021-02-20 14:00:00 7.3 24 Este 46 Este 0 -- -- 71
2021-02-20 13:00:00 6.7 25 Este 49 Este 0 -- -- 77
2021-02-20 12:00:00 6.4 26 Este 52 Este 0 -- -- 80
2021-02-20 11:00:00 6.5 22 Este 51 Este 0 -- -- 84
2021-02-20 10:00:00 5.5 22 Este 45 Este 0 -- -- 89
2021-02-20 09:00:00 5 22 Sudeste 54 Este 0 -- -- 89
2021-02-20 08:00:00 4.5 22 Este 49 Este 0 -- -- 92
2021-02-20 07:00:00 4.5 23 Este 43 Este 0 -- -- 90
2021-02-20 06:00:00 4.6 23 Este 40 Este 0 -- -- 88
2021-02-20 05:00:00 4.8 17 Este 41 Este 0 -- -- 92
2021-02-20 04:00:00 5 19 Este 39 Este 0 -- -- 92
2021-02-20 03:00:00 5 23 Este 41 Este 0 -- -- 87
2021-02-20 02:00:00 5.3 25 Este 46 Este 0 -- -- 86
2021-02-20 01:00:00 5.7 22 Este 40 Este 0 -- -- 88
2021-02-20 00:00:00 6.1 18 Este 37 Este 0 -- -- 86
2021-02-19 23:00:00 5.9 13 Sudeste 33 Sudeste 0 -- -- 87
2021-02-19 22:00:00 6 12 Sudeste 23 Este 0 -- -- 83
2021-02-19 21:00:00 5.5 9 Sudeste 25 Sudeste 0 -- -- 64
2021-02-19 20:00:00 6 11 Sudeste 27 Sudeste 0 -- -- 73
2021-02-19 19:00:00 6.9 9 Sudeste 26 Sur 0 -- -- 63
2021-02-19 18:00:00 8.6 9 Sudeste 26 Sudeste 0 -- -- 64
2021-02-19 17:00:00 9.4 10 Sudeste 27 Sudeste 0 -- -- 65
2021-02-19 16:00:00 10.8 12 Sudeste 34 Este 0 -- -- 56
2021-02-19 15:00:00 10.9 14 Sudeste 39 Sudeste 0 -- -- 50
2021-02-19 14:00:00 10.7 18 Este 48 Este 0 -- -- 57
2021-02-19 13:00:00 10 18 Este 40 Este 0 -- -- 53
2021-02-19 12:00:00 8.6 19 Este 38 Sudeste 0 -- -- 73
2021-02-19 11:00:00 7.7 18 Este 33 Este 0 -- -- 76
2021-02-19 10:00:00 6.5 15 Este 28 Este 0 -- -- 84
2021-02-19 09:00:00 4.7 10 Sudeste 22 Este 0 -- -- 92
2021-02-19 08:00:00 3.7 7 Sudeste 17 Sudeste 0 -- -- 89
2021-02-19 07:00:00 4 6 Sudeste 18 Sudeste 0 -- -- 92
2021-02-19 06:00:00 4.2 7 Sudeste 18 Sudeste 0 -- -- 94
2021-02-19 05:00:00 5.4 5 Sudeste 16 Sur 0 -- -- 93
2021-02-19 04:00:00 4.9 4 Sudeste 12 Sudeste 0 -- -- 91
2021-02-19 03:00:00 4 5 Sudeste 15 Sur 0 -- -- 90
2021-02-19 02:00:00 5 6 Sudeste 19 Sur 0 -- -- 83
2021-02-19 01:00:00 5.7 6 Sur 23 Sur 0 -- -- 81
2021-02-19 00:00:00 6.5 8 Sur 21 Sudeste 0 -- -- 79
2021-02-18 23:00:00 6.4 7 Sur 23 Sur 0 -- -- 81
2021-02-18 22:00:00 6.4 8 Sur 21 Sur 0 -- -- 80
2021-02-18 21:00:00 6.4 7 Sudeste 16 Sur 0 -- -- 83
2021-02-18 20:00:00 6.1 5 Sur 18 Sur 0 -- -- 81
2021-02-18 19:00:00 7.3 5 Sudeste 21 Sur 0 -- -- 81
2021-02-18 18:00:00 8.3 7 Sur 23 Sur 0 -- -- 75
2021-02-18 17:00:00 9.5 10 Sur 24 Sur 0 -- -- 71
2021-02-18 16:00:00 10.2 12 Sudoeste 30 Sur 0 -- -- 68
2021-02-18 15:00:00 10.3 13 Sudoeste 32 Sudoeste 0 -- -- 66
2021-02-18 14:00:00 10.4 14 Sudoeste 35 Sudoeste 0 -- -- 65
2021-02-18 13:00:00 9.8 14 Sudoeste 30 Sudoeste 0 -- -- 62
2021-02-18 12:00:00 9.1 12 Sur 29 Sur 0 -- -- 68
2021-02-18 11:00:00 8.3 10 Sur 32 Sur 0 -- -- 71
2021-02-18 10:00:00 6.4 8 Sur 22 Sur 0 -- -- 79
2021-02-18 09:00:00 4.3 6 Sur 20 Sur 0 -- -- 85
2021-02-18 08:00:00 3.2 6 Sudeste 17 Sudeste 0 -- -- 86
2021-02-18 07:00:00 2.5 5 Sudeste 11 Sur 0 -- -- 91
2021-02-18 06:00:00 3.3 2 Sudeste 7 Sudeste 0 -- -- 92
2021-02-18 05:00:00 4.1 0 Calma 6 Sur 0 -- -- 91
2021-02-18 04:00:00 4.3 0 Calma 6 Sur 0 -- -- 91
2021-02-18 03:00:00 5.7 3 Sudeste 12 Sur 0 -- -- 95
2021-02-18 02:00:00 5.2 5 Sudeste 13 Sur 0 -- -- 98
2021-02-18 01:00:00 5.2 4 Sudeste 11 Sudeste 0 -- -- 92
2021-02-18 00:00:00 5.6 4 Sudeste 14 Este 0 -- -- 88
2021-02-17 23:00:00 6.5 6 Sudeste 19 Sudeste 0 -- -- 85
2021-02-17 22:00:00 7 7 Sudeste 19 Este 0 -- -- 82
2021-02-17 21:00:00 7.2 7 Sudeste 23 Este 0 -- -- 75
2021-02-17 20:00:00 7.5 5 Sudeste 23 Este 0 -- -- 66
2021-02-17 19:00:00 8.7 8 Sudeste 20 Este 0 -- -- 68
2021-02-17 18:00:00 10.7 6 Sudeste 18 Sur 0 -- -- 57
2021-02-17 17:00:00 12.3 5 Sur 17 Sur 0 -- -- 49
2021-02-17 16:00:00 12.6 5 Sur 25 Sudoeste 0 -- -- 49
2021-02-17 15:00:00 12.8 6 Sudeste 16 Sur 0 -- -- 56
2021-02-17 14:00:00 11 7 Sudeste 22 Este 0 -- -- 76
2021-02-17 13:00:00 10.5 10 Este 22 Este 0 -- -- 75
2021-02-17 12:00:00 10.3 5 Sudeste 20 Este 0 -- -- 79
2021-02-17 11:00:00 8.6 9 Este 19 Este 0 -- -- 85
2021-02-17 10:00:00 7.8 5 Este 14 Este 0 -- -- 90
2021-02-17 09:00:00 5.9 4 Sur 15 Este 0 -- -- 93
2021-02-17 08:00:00 5.5 5 Este 15 Sudeste 0 -- -- 96
2021-02-17 07:00:00 5.2 4 Sudeste 10 Este 0 -- -- 98
2021-02-17 06:00:00 4.9 5 Sudeste 9 Este 0 -- -- 97
2021-02-17 05:00:00 5.2 3 Sudeste 6 Sudeste 0 -- -- 96
2021-02-17 04:00:00 5.5 0 Calma 3 Sur 0 -- -- 97
2021-02-17 03:00:00 5.6 0 Calma 4 Sudoeste 0 -- -- 94
2021-02-17 02:00:00 5.7 0 Calma 5 Sur 0 -- -- 91
2021-02-17 01:00:00 5.9 0 Calma 4 Sudoeste 0 -- -- 91
2021-02-17 00:00:00 5.9 0 Calma 3 Sudeste 0 -- -- 92
2021-02-16 23:00:00 5.8 0 Calma 3 Noroeste 0 -- -- 91
2021-02-16 22:00:00 6.1 0 Calma 2 Oeste 0 -- -- 89
2021-02-16 21:00:00 6.3 0 Calma 5 Sudoeste 0 -- -- 86
2021-02-16 20:00:00 6.7 3 Sur 9 Sudoeste 0 -- -- 83
2021-02-16 19:00:00 7.7 3 Sur 5 Sudoeste 0 -- -- 80
2021-02-16 18:00:00 8.9 4 Oeste 12 Sudoeste 0 -- -- 79
2021-02-16 17:00:00 9.9 6 Sur 19 Sur 0 -- -- 72
2021-02-16 16:00:00 11.3 6 Sudeste 24 Sudeste 0 -- -- 62
2021-02-16 15:00:00 11.4 10 Sur 23 Sudoeste 0 -- -- 60
2021-02-16 14:00:00 10.6 8 Sur 19 Este 0 -- -- 69
2021-02-16 13:00:00 9.3 7 Este 17 Este 0 -- -- 77
2021-02-16 12:00:00 9.3 6 Sudeste 24 Sudeste 0 -- -- 73
2021-02-16 11:00:00 8.8 9 Sudeste 25 Sudeste 0 -- -- 71
2021-02-16 10:00:00 6.8 8 Sudeste 27 Este 0 -- -- 82
2021-02-16 09:00:00 5.8 12 Este 34 Sudeste 0 -- -- 87
2021-02-16 08:00:00 5.7 11 Este 35 Nordeste 0 -- -- 86
2021-02-16 07:00:00 5.8 13 Este 39 Nordeste 0 -- -- 87
2021-02-16 06:00:00 5.8 20 Este 35 Este 0 -- -- 88
2021-02-16 05:00:00 5.7 19 Este 53 Nordeste 0 -- -- 89
2021-02-16 04:00:00 6.1 21 Este 51 Este 0 -- -- 87
2021-02-16 03:00:00 5.7 22 Este 57 Nordeste 0 -- -- 90
2021-02-16 02:00:00 6.3 28 Este 49 Nordeste 0 -- -- 87
2021-02-16 01:00:00 6.9 28 Este 51 Este 0 -- -- 85
2021-02-16 00:00:00 7 24 Este 66 Este 0 -- -- 87
2021-02-15 23:00:00 7.1 21 Este 49 Este 0 -- -- 87
2021-02-15 22:00:00 7.1 22 Este 48 Este 0 -- -- 88
2021-02-15 21:00:00 6.7 18 Este 39 Este 0 -- -- 92
2021-02-15 20:00:00 6.9 21 Este 37 Este 0 -- -- 97
2021-02-15 19:00:00 7.3 19 Este 41 Nordeste 0 -- -- 94
2021-02-15 18:00:00 8.4 21 Este 43 Este 0 -- -- 89
2021-02-15 17:00:00 9.3 22 Este 48 Este 0 -- -- 84
2021-02-15 16:00:00 9.2 27 Este 49 Este 0 -- -- 86
2021-02-15 15:00:00 8.9 29 Este 55 Este 0 -- -- 86
2021-02-15 14:00:00 8.5 30 Este 52 Este 0 -- -- 87
2021-02-15 13:00:00 7.6 26 Este 44 Este 0 -- -- 90
2021-02-15 12:00:00 7.2 23 Este 41 Este 0 -- -- 87
2021-02-15 11:00:00 5.2 21 Este 39 Este 0 -- -- 98
2021-02-15 10:00:00 4.6 20 Este 38 Este 0 -- -- 99
2021-02-15 09:00:00 3.4 23 Este 41 Este 0 -- -- 100
2021-02-15 08:00:00 3.7 20 Este 38 Este 0 -- -- 97
2021-02-15 07:00:00 4.3 20 Este 33 Este 0 -- -- 93
2021-02-15 06:00:00 5.7 18 Este 35 Este 0 -- -- 83
2021-02-15 05:00:00 6.3 18 Este 31 Este 0 -- -- 78
2021-02-15 04:00:00 5.7 15 Este 33 Este 0 -- -- 84
2021-02-15 03:00:00 6.8 18 Este 35 Este 0 -- -- 75
2021-02-15 02:00:00 6.9 18 Este 35 Nordeste 0 -- -- 78
2021-02-15 01:00:00 7 17 Este 32 Este 0 -- -- 80
2021-02-15 00:00:00 7.2 17 Este 31 Nordeste 0 -- -- 82
2021-02-14 23:00:00 7.2 16 Este 31 Nordeste 0 -- -- 82
2021-02-14 22:00:00 7.1 19 Este 33 Este 0 -- -- 83
2021-02-14 21:00:00 7.4 15 Este 30 Este 0 -- -- 84
2021-02-14 20:00:00 7.6 15 Este 28 Este 0 -- -- 83
2021-02-14 19:00:00 7.9 14 Este 28 Este 0 -- -- 83
2021-02-14 18:00:00 9.3 15 Este 27 Este 0 -- -- 80
2021-02-14 17:00:00 10.2 13 Este 26 Este 0 -- -- 75
2021-02-14 16:00:00 10.2 12 Este 24 Este 0 -- -- 73
2021-02-14 15:00:00 9.8 13 Este 29 Este 0 -- -- 72
2021-02-14 14:00:00 10.1 13 Este 29 Nordeste 0 -- -- 72
2021-02-14 13:00:00 9.3 16 Este 30 Este 0 -- -- 71
2021-02-14 12:00:00 8.7 18 Este 35 Este 0 -- -- 74
2021-02-14 11:00:00 8.7 12 Este 24 Nordeste 0 -- -- 75
2021-02-14 10:00:00 8 9 Este 18 Nordeste 0 -- -- 79
2021-02-14 09:00:00 5.7 9 Este 20 Este 0 -- -- 86
2021-02-14 08:00:00 5.3 9 Este 18 Este 0 -- -- 85
2021-02-14 07:00:00 5.5 9 Este 19 Nordeste 0 -- -- 84
2021-02-14 06:00:00 5.4 10 Este 21 Este 0 -- -- 84
2021-02-14 05:00:00 5.4 10 Este 19 Este 0 -- -- 86
2021-02-14 04:00:00 5.6 9 Este 17 Este 0 -- -- 83
2021-02-14 03:00:00 5.6 9 Este 18 Nordeste 0 -- -- 81
2021-02-14 02:00:00 5.6 7 Este 13 Este 0 -- -- 82
2021-02-14 01:00:00 5.9 6 Este 12 Este 0 -- -- 84
2021-02-14 00:00:00 5.8 6 Este 15 Este 0 -- -- 87
2021-02-13 23:00:00 6.8 5 Este 14 Este 0 -- -- 86
2021-02-13 22:00:00 6.2 4 Nordeste 21 Norte 0 -- -- 85
2021-02-13 21:00:00 6.3 3 Nordeste 12 Norte 0 -- -- 86
2021-02-13 20:00:00 7.4 6 Norte 12 Noroeste 0 -- -- 80
2021-02-13 19:00:00 9 5 Noroeste 20 Oeste 0 -- -- 76
2021-02-13 18:00:00 11.6 6 Oeste 13 Oeste 0 -- -- 66
2021-02-13 17:00:00 12.8 6 Oeste 13 Oeste 0 -- -- 61
2021-02-13 16:00:00 13.2 6 Oeste 22 Noroeste 0 -- -- 57
2021-02-13 15:00:00 13 11 Noroeste 25 Noroeste 0 -- -- 57
2021-02-13 14:00:00 12.5 14 Noroeste 30 Oeste 0 -- -- 55
2021-02-13 13:00:00 11.3 17 Noroeste 31 Noroeste 0 -- -- 45
2021-02-13 08:00:00 4.1 9 Sudoeste 16 Oeste 0 -- -- 53
2021-02-13 07:00:00 4 5 Oeste 13 Oeste 0 -- -- 60
2021-02-13 06:00:00 3.1 4 Sudoeste 11 Sudoeste 0 -- -- 86
2021-02-13 05:00:00 2.6 4 Sudoeste 10 Sudoeste 0 -- -- 84
2021-02-13 04:00:00 2.6 2 Sur 10 Oeste 0 -- -- 60
2021-02-13 03:00:00 3.7 6 Oeste 13 Noroeste 0 -- -- 51
2021-02-13 02:00:00 3.7 6 Noroeste 16 Noroeste 0 -- -- 54
2021-02-13 01:00:00 3.4 0 Calma 10 Noroeste 0 -- -- 69
2021-02-13 00:00:00 3.1 4 Nordeste 12 Nordeste 0 -- -- 83
2021-02-12 23:00:00 4 3 Norte 21 Noroeste 0 -- -- 85
2021-02-12 22:00:00 5 13 Noroeste 31 Noroeste 0 -- -- 87
2021-02-12 21:00:00 5.1 19 Noroeste 31 Oeste 0 -- -- 88
2021-02-12 20:00:00 5.6 16 Noroeste 32 Noroeste 0 -- -- 87
2021-02-12 19:00:00 6.1 18 Noroeste 35 Noroeste 0 -- -- 86
2021-02-12 18:00:00 7.4 14 Noroeste 38 Noroeste 0 -- -- 81
2021-02-12 17:00:00 8.1 22 Noroeste 40 Noroeste 0 -- -- 78
2021-02-12 16:00:00 8.7 21 Noroeste 33 Noroeste 0 -- -- 81
2021-02-12 15:00:00 7.6 18 Noroeste 33 Noroeste 0 -- -- 85
2021-02-12 14:00:00 6.2 10 Oeste 26 Sudoeste 0 -- -- 96
2021-02-12 13:00:00 5.3 11 Sudoeste 21 Sudoeste 0 -- -- 100
2021-02-12 12:00:00 4.6 7 Oeste 25 Norte 0 -- -- 100
2021-02-12 11:00:00 4.4 10 Sudoeste 22 Sudoeste 0 -- -- 100
2021-02-12 10:00:00 4.1 9 Sudoeste 21 Sudoeste 0 -- -- 100
2021-02-12 09:00:00 4.3 8 Sudoeste 22 Sudoeste 0 -- -- 100
2021-02-12 08:00:00 4.3 13 Oeste 30 Oeste 0 -- -- 100
2021-02-12 07:00:00 5 21 Sudoeste 35 Sudoeste 0 -- -- 100
2021-02-12 06:00:00 5.6 19 Oeste 40 Sudoeste 0 -- -- 100
2021-02-12 05:00:00 6.2 24 Sudoeste 48 Sudoeste 0.6 -- -- 100
2021-02-12 04:00:00 7 21 Sudoeste 40 Sudoeste 3.6 -- -- 100
2021-02-12 03:00:00 7.2 18 Sudoeste 46 Sudoeste 5.8 -- -- 100
2021-02-12 02:00:00 7.3 13 Sur 35 Sudoeste 5.6 -- -- 100
2021-02-12 01:00:00 7.4 14 Sur 32 Sudeste 0.8 -- -- 100
2021-02-12 00:00:00 7.6 14 Sur 29 Sur 0.6 -- -- 100
2021-02-11 23:00:00 7.4 8 Sur 26 Sur 0.2 -- -- 100
2021-02-11 22:00:00 7.4 9 Sudeste 24 Sur 0.4 -- -- 100
2021-02-11 21:00:00 7.5 9 Sur 22 Sur 0 -- -- 100
2021-02-11 20:00:00 7.4 9 Sur 27 Sur 0.6 -- -- 100
2021-02-11 19:00:00 7.9 6 Sur 18 Sudoeste 1.8 -- -- 100
2021-02-11 18:00:00 7.9 6 Sur 21 Sur 0.2 -- -- 100
2021-02-11 17:00:00 8.1 8 Sur 22 Sur 0.2 -- -- 100
2021-02-11 16:00:00 8.7 7 Sur 23 Sur 1.2 -- -- 100
2021-02-11 15:00:00 8.5 7 Sur 21 Sur 1.4 -- -- 100
2021-02-11 14:00:00 8.3 8 Sur 19 Sur 2.2 -- -- 100
2021-02-11 13:00:00 8 7 Sur 18 Sur 1.4 -- -- 100
2021-02-11 12:00:00 8 8 Sudeste 16 Sur 0.4 -- -- 100
2021-02-11 11:00:00 7.9 6 Sudeste 13 Sur 0.6 -- -- 100
2021-02-11 10:00:00 7.6 4 Sudeste 11 Sudeste 0.4 -- -- 100
2021-02-11 09:00:00 7.4 3 Sur 15 Sur 0.6 -- -- 100
2021-02-11 08:00:00 7.5 6 Sur 16 Sur 0.6 -- -- 100
2021-02-11 07:00:00 7.6 8 Sudoeste 22 Sudoeste 0.6 -- -- 100
2021-02-11 06:00:00 7.6 9 Sudoeste 21 Sudoeste 0.6 -- -- 100
2021-02-11 05:00:00 7.5 7 Sudoeste 17 Sudoeste 0.6 -- -- 100
2021-02-11 04:00:00 7.4 7 Sudoeste 22 Sudoeste 0.8 -- -- 100
2021-02-11 03:00:00 7.3 9 Sudoeste 20 Sudoeste 0.4 -- -- 100
2021-02-11 02:00:00 7 8 Sudoeste 23 Sudoeste 0.8 -- -- 100
2021-02-11 01:00:00 6.3 8 Sudoeste 21 Sudoeste 0 -- -- 100
2021-02-11 00:00:00 5.3 9 Oeste 21 Sudoeste 0 -- -- 100
2021-02-10 23:00:00 5.1 11 Sudoeste 18 Sudoeste 0 -- -- 100
2021-02-10 22:00:00 4.9 7 Sudoeste 20 Sudoeste 0 -- -- 100
2021-02-10 21:00:00 5 9 Oeste 20 Sudoeste 0 -- -- 100
2021-02-10 20:00:00 4.9 10 Sudoeste 20 Sudoeste 0 -- -- 98
2021-02-10 19:00:00 5.3 9 Sudoeste 18 Sur 0 -- -- 95
2021-02-10 18:00:00 5.9 9 Sudoeste 32 Sudoeste 0 -- -- 92
2021-02-10 17:00:00 7 16 Sudoeste 26 Sudoeste 0 -- -- 86
2021-02-10 16:00:00 8 12 Sudoeste 27 Oeste 0 -- -- 79
2021-02-10 15:00:00 7.8 12 Oeste 31 Oeste 0 -- -- 81
2021-02-10 14:00:00 6.9 23 Oeste 32 Oeste 0 -- -- 80
2021-02-10 13:00:00 7 11 Oeste 36 Noroeste 0 -- -- 73
2021-02-10 12:00:00 5.9 22 Noroeste 53 Noroeste 0 -- -- 77
2021-02-10 11:00:00 4.5 21 Noroeste 33 Noroeste 0 -- -- 100
2021-02-10 10:00:00 3.4 13 Sudoeste 23 Sudoeste 0 -- -- 100
2021-02-10 09:00:00 2.4 9 Sudoeste 28 Sudoeste 0 -- -- 100
2021-02-10 08:00:00 2.4 14 Oeste 42 Oeste 0.2 -- -- 100
2021-02-10 07:00:00 2.8 21 Oeste 55 Sudoeste 0.2 -- -- 100
2021-02-10 06:00:00 3.5 27 Oeste 67 Sudoeste 1.4 -- -- 100
2021-02-10 05:00:00 3.7 30 Sudoeste 57 Sudoeste 2.4 -- -- 100
2021-02-10 04:00:00 3.7 32 Sudoeste 75 Sudoeste 1 -- -- 100
2021-02-10 03:00:00 3.7 36 Sudoeste 67 Sudoeste 0.6 -- -- 100
2021-02-10 02:00:00 3.1 34 Sudoeste 66 Sudoeste 0.8 -- -- 100
2021-02-10 01:00:00 3.2 26 Sudoeste 57 Sudoeste 1.6 -- -- 100
2021-02-10 00:00:00 3.2 25 Sudoeste 57 Sudoeste 0 -- -- 100
2021-02-09 23:00:00 3.2 27 Sudoeste 60 Sur 0.2 -- -- 100
2021-02-09 22:00:00 3.1 27 Sudoeste 58 Sudoeste 0 -- -- 100
2021-02-09 21:00:00 3.3 22 Sudoeste 56 Sudoeste 0 -- -- 100
2021-02-09 20:00:00 3.6 27 Sudoeste 60 Sudoeste 0.8 -- -- 100
2021-02-09 19:00:00 3.9 26 Sudoeste 64 Sur 0.2 -- -- 100
2021-02-09 18:00:00 3.9 26 Sudoeste 60 Sudoeste 0 -- -- 100
2021-02-09 17:00:00 3.8 24 Sudoeste 54 Sudoeste 0 -- -- 100
2021-02-09 16:00:00 3.7 18 Sudoeste 48 Sudoeste 0 -- -- 100
2021-02-09 15:00:00 3.5 22 Sudoeste 40 Sudoeste 1.4 -- -- 100
2021-02-09 14:00:00 3.8 29 Sudoeste 67 Sudoeste 3.2 -- -- 100
2021-02-09 13:00:00 4.9 29 Sudoeste 67 Sudoeste 9.2 -- -- 100
2021-02-09 12:00:00 4.6 18 Sur 59 Sur 12.2 -- -- 100
2021-02-09 11:00:00 4.3 24 Sur 54 Sur 10.2 -- -- 100
2021-02-09 10:00:00 4.2 18 Sur 54 Sur 8.6 -- -- 100
2021-02-09 09:00:00 4.2 16 Sur 42 Sur 9 -- -- 100
2021-02-09 08:00:00 4 13 Sur 41 Sudeste 6.4 -- -- 100
2021-02-09 07:00:00 4 17 Sur 36 Sur 4.6 -- -- 100
2021-02-09 06:00:00 3.8 11 Sur 36 Sur 3.6 -- -- 100
2021-02-09 05:00:00 3.4 12 Sur 30 Sudoeste 2 -- -- 100
2021-02-09 04:00:00 3.2 13 Sur 36 Sudoeste 1.2 -- -- 100
2021-02-09 03:00:00 2.9 11 Sur 27 Sur 2.2 -- -- 100
2021-02-09 02:00:00 2.7 12 Sur 36 Sudoeste 0.2 -- -- 100
2021-02-09 01:00:00 2.3 13 Sudoeste 32 Sudoeste 0 -- -- 100
2021-02-09 00:00:00 2.2 17 Sudoeste 36 Sudoeste 0 -- -- 100
2021-02-08 23:00:00 1.7 15 Sudoeste 33 Sudoeste 0 -- -- 100
2021-02-08 22:00:00 1.8 14 Sudoeste 38 Sudoeste 0 -- -- 100
2021-02-08 21:00:00 2.2 22 Sudoeste 36 Sudoeste 0 -- -- 100
2021-02-08 20:00:00 2.7 15 Sudoeste 29 Sudoeste 0 -- -- 100
2021-02-08 19:00:00 2.9 13 Sudoeste 34 Sudoeste 0 -- -- 100
2021-02-08 18:00:00 3.3 21 Sudoeste 44 Sudoeste 0 -- -- 100
2021-02-08 17:00:00 3.4 23 Sudoeste 46 Sudoeste 0 -- -- 100
2021-02-08 16:00:00 3.8 19 Sudoeste 46 Sudoeste 0 -- -- 100
2021-02-08 15:00:00 3.1 22 Sudoeste 39 Sudoeste 0 -- -- 100
2021-02-08 14:00:00 3 17 Sudoeste 39 Sudoeste 0.2 -- -- 100
2021-02-08 13:00:00 2.5 15 Sudoeste 35 Sudoeste 0 -- -- 100
2021-02-08 12:00:00 2.5 22 Sudoeste 38 Sudoeste 0.2 -- -- 100
2021-02-08 11:00:00 2.1 14 Oeste 31 Oeste 3.6 -- -- 100
2021-02-08 10:00:00 2 17 Sudoeste 40 Sudoeste 2.2 -- -- 100
2021-02-08 09:00:00 2.1 15 Sudoeste 40 Sudoeste 0.2 -- -- 100
2021-02-08 08:00:00 2 18 Sudoeste 39 Sudoeste 0 -- -- 100
2021-02-08 07:00:00 2.9 19 Sudoeste 36 Sudoeste 0 -- -- 100
2021-02-08 06:00:00 3.1 17 Oeste 38 Sudoeste 1.6 -- -- 100
2021-02-08 05:00:00 4.1 19 Sudoeste 40 Sudoeste 1.2 -- -- 100
2021-02-08 04:00:00 4.3 14 Sudoeste 31 Sudoeste 6 -- -- 100
2021-02-08 03:00:00 3.7 10 Sur 39 Sur 8.6 -- -- 100
2021-02-08 02:00:00 3.6 12 Sur 30 Sudeste 7.8 -- -- 100
2021-02-08 01:00:00 3.3 10 Sur 31 Sur 8 -- -- 100
2021-02-08 00:00:00 2.9 13 Sur 32 Sur 3.8 -- -- 100
2021-02-07 23:00:00 2.6 11 Sur 24 Sur 2 -- -- 100
2021-02-07 22:00:00 2.2 7 Sur 18 Sur 1.6 -- -- 100
2021-02-07 21:00:00 2.2 8 Sudoeste 22 Sudoeste 1 -- -- 100
2021-02-07 20:00:00 1.8 12 Sudoeste 26 Sudoeste 0.2 -- -- 100
2021-02-07 19:00:00 0.9 15 Sudoeste 30 Sudoeste 0 -- -- 100
2021-02-07 18:00:00 1.2 10 Sudoeste 30 Sudoeste 0.8 -- -- 100
2021-02-07 17:00:00 2.1 15 Sudoeste 27 Sudoeste 0.6 -- -- 100
2021-02-07 16:00:00 2.8 18 Sudoeste 31 Oeste 0 -- -- 98
2021-02-07 15:00:00 4.1 17 Sudoeste 29 Sudoeste 0 -- -- 86
2021-02-07 14:00:00 4.7 17 Sudoeste 27 Sudoeste 0 -- -- 81
2021-02-07 13:00:00 6.2 10 Oeste 19 Sudoeste 0 -- -- 73
2021-02-07 12:00:00 5.3 6 Oeste 17 Noroeste 0 -- -- 80
2021-02-07 11:00:00 3.8 8 Noroeste 22 Noroeste 0 -- -- 88
2021-02-07 10:00:00 1.7 10 Noroeste 23 Noroeste 0 -- -- 93
2021-02-07 09:00:00 0.3 12 Noroeste 24 Noroeste 0 -- -- 96
2021-02-07 08:00:00 0.2 7 Noroeste 12 Noroeste 0 -- -- 97
2021-02-07 07:00:00 0.4 4 Norte 9 Noroeste 0 -- -- 99
2021-02-07 06:00:00 1.1 0 Calma 8 Noroeste 0 -- -- 100
2021-02-07 05:00:00 1.7 0 Calma 5 Sur 0 -- -- 100
2021-02-07 04:00:00 1.4 2 Sur 4 Sudoeste 0 -- -- 100
2021-02-07 03:00:00 1.6 2 Sur 6 Sudeste 0 -- -- 100
2021-02-07 02:00:00 2.1 2 Este 8 Nordeste 0 -- -- 100
2021-02-07 01:00:00 2.3 4 Nordeste 7 Este 0 -- -- 100
2021-02-07 00:00:00 2 0 Calma 4 Norte 0 -- -- 99
2021-02-06 23:00:00 2.4 0 Calma 8 Norte 0 -- -- 100
2021-02-06 22:00:00 3.1 4 Nordeste 12 Este 0 -- -- 99
2021-02-06 21:00:00 3.1 3 Nordeste 17 Nordeste 0.2 -- -- 99
2021-02-06 20:00:00 3.4 8 Norte 20 Nordeste 0 -- -- 99
2021-02-06 19:00:00 4.1 8 Nordeste 19 Nordeste 0 -- -- 100
2021-02-06 18:00:00 4.6 5 Noroeste 9 Noroeste 1 -- -- 100
2021-02-06 17:00:00 4.9 0 Calma 6 Oeste 4.8 -- -- 100
2021-02-06 16:00:00 5.8 3 Noroeste 16 Oeste 0 -- -- 100
2021-02-06 15:00:00 6 3 Oeste 9 Este 0.2 -- -- 100
2021-02-06 14:00:00 4.7 3 Este 12 Nordeste 0.4 -- -- 100
2021-02-06 13:00:00 4.7 4 Este 12 Este 0.6 -- -- 100
2021-02-06 12:00:00 4.4 4 Este 8 Este 0.6 -- -- 100
2021-02-06 11:00:00 4.1 2 Sudeste 13 Este 1.4 -- -- 100
2021-02-06 10:00:00 4.3 4 Sudeste 15 Este 0.4 -- -- 100
2021-02-06 09:00:00 3.8 5 Este 10 Este 0.4 -- -- 100
2021-02-06 08:00:00 3.5 2 Sudeste 10 Sudeste 1.2 -- -- 100
2021-02-06 07:00:00 3.5 6 Sudeste 17 Sur 0.6 -- -- 100
2021-02-06 06:00:00 3.7 6 Sudeste 23 Este 0.8 -- -- 100
2021-02-06 05:00:00 4.1 7 Sudeste 23 Sudeste 3 -- -- 100
2021-02-06 04:00:00 4.1 5 Sudeste 22 Sudeste 3.4 -- -- 100
2021-02-06 03:00:00 4.1 9 Este 20 Sudeste 3.8 -- -- 100
2021-02-06 02:00:00 4.1 10 Sudeste 24 Sudeste 4.4 -- -- 100
2021-02-06 01:00:00 4.2 11 Este 22 Este 6 -- -- 100
2021-02-06 00:00:00 3.9 11 Este 32 Sudeste 4.2 -- -- 100
2021-02-05 23:00:00 4.2 11 Este 25 Este 0.8 -- -- 100
2021-02-05 22:00:00 4.3 12 Este 23 Sudeste 0.2 -- -- 100
2021-02-05 21:00:00 4.5 10 Este 25 Sudeste 0.6 -- -- 100
2021-02-05 20:00:00 5.1 10 Sudeste 32 Sudeste 1.2 -- -- 100
2021-02-05 19:00:00 5 6 Este 22 Este 0 -- -- 100
2021-02-05 18:00:00 5.8 10 Este 23 Sudeste 0 -- -- 99
2021-02-05 17:00:00 5.9 5 Noroeste 13 Noroeste 0.4 -- -- 100
2021-02-05 16:00:00 5.6 2 Sudoeste 14 Sur 0.4 -- -- 100
2021-02-05 15:00:00 6.3 6 Sur 17 Sur 0.4 -- -- 99
2021-02-05 14:00:00 6.9 5 Oeste 11 Oeste 0 -- -- 93
2021-02-05 13:00:00 6.7 6 Sudoeste 10 Sudoeste 0 -- -- 94
2021-02-05 12:00:00 6.5 4 Sur 14 Sudoeste 0 -- -- 96
2021-02-05 11:00:00 6.9 9 Sudoeste 17 Sudoeste 0 -- -- 92
2021-02-05 10:00:00 5.8 2 Noroeste 8 Noroeste 0 -- -- 100
2021-02-05 09:00:00 4.8 4 Sur 31 Sudoeste 3 -- -- 100
2021-02-05 08:00:00 5.7 8 Sur 26 Sudoeste 3.2 -- -- 100
2021-02-05 07:00:00 5.9 6 Este 24 Este 0.2 -- -- 100
2021-02-05 06:00:00 6 12 Sudeste 45 Este 1.4 -- -- 100
2021-02-05 05:00:00 6.2 19 Sudeste 47 Sudeste 1.2 -- -- 100
2021-02-05 04:00:00 5.9 19 Este 45 Este 0.6 -- -- 100
2021-02-05 03:00:00 5.9 23 Este 42 Este 0.2 -- -- 100
2021-02-05 02:00:00 5.7 22 Este 42 Este 0 -- -- 100
2021-02-05 01:00:00 5.8 19 Este 41 Este 0 -- -- 100
2021-02-05 00:00:00 5.8 19 Este 34 Este 0.6 -- -- 100
2021-02-04 23:00:00 5.9 14 Este 30 Este 0 -- -- 100
2021-02-04 22:00:00 5.7 11 Este 22 Este 1 -- -- 100
2021-02-04 21:00:00 5.7 10 Este 31 Este 1.4 -- -- 100
2021-02-04 20:00:00 5.4 15 Este 33 Nordeste 0 -- -- 100
2021-02-04 19:00:00 4.4 6 Nordeste 15 Sudeste 1.4 -- -- 100
2021-02-04 18:00:00 4.7 2 Este 8 Sur 2.6 -- -- 100
2021-02-04 17:00:00 5.6 0 Calma 14 Sudeste 2 -- -- 100
2021-02-04 16:00:00 5.8 5 Sudeste 23 Este 2.6 -- -- 100
2021-02-04 15:00:00 5.7 10 Sudeste 23 Este 5.2 -- -- 100
2021-02-04 14:00:00 5.4 6 Este 29 Este 11.8 -- -- 100
2021-02-04 13:00:00 5 14 Este 29 Este 5.4 -- -- 100
2021-02-04 12:00:00 4.7 12 Este 32 Este 5.6 -- -- 100
2021-02-04 11:00:00 4.4 15 Este 36 Este 3.6 -- -- 100
2021-02-04 10:00:00 4.5 19 Este 37 Este 1.6 -- -- 100
2021-02-04 09:00:00 4.2 13 Este 28 Este 0.8 -- -- 100
2021-02-04 08:00:00 4.1 14 Este 28 Nordeste 0.4 -- -- 100
2021-02-04 07:00:00 4.3 11 Este 22 Este 0 -- -- 100
2021-02-04 06:00:00 4.4 6 Este 16 Este 0.2 -- -- 100
2021-02-04 05:00:00 4.3 5 Este 15 Sudeste 0 -- -- 100
2021-02-04 04:00:00 4.5 4 Este 13 Sudeste 0.2 -- -- 100
2021-02-04 03:00:00 4.8 4 Sudeste 26 Sudeste 0.4 -- -- 100
2021-02-04 02:00:00 4.8 4 Sur 13 Sur 0.8 -- -- 100
2021-02-04 01:00:00 4.4 4 Sur 22 Sudoeste 0.2 -- -- 100
2021-02-04 00:00:00 5 6 Sudoeste 18 Sur 0.4 -- -- 100
2021-02-03 23:00:00 5.2 10 Sudoeste 21 Sudoeste 0.8 -- -- 100
2021-02-03 22:00:00 5.1 9 Oeste 21 Sudoeste 1.8 -- -- 100
2021-02-03 21:00:00 5.1 9 Sudoeste 24 Sudoeste 1.2 -- -- 100
2021-02-03 20:00:00 5.3 7 Sur 25 Sur 3.8 -- -- 100
2021-02-03 19:00:00 6.5 12 Sudoeste 28 Sudoeste 4.6 -- -- 100
2021-02-03 18:00:00 7.2 11 Sur 33 Sur 3.8 -- -- 100
2021-02-03 17:00:00 7.1 12 Sudeste 31 Sur 1.8 -- -- 100
2021-02-03 16:00:00 7 9 Sudeste 28 Sudeste 1.8 -- -- 100
2021-02-03 15:00:00 6.9 10 Sur 27 Sudeste 2 -- -- 100
2021-02-03 14:00:00 6.6 9 Sur 26 Sur 2.2 -- -- 100
2021-02-03 13:00:00 6.2 10 Sur 25 Sur 1.4 -- -- 100
2021-02-03 12:00:00 6 10 Sur 24 Sur 2.2 -- -- 100
2021-02-03 11:00:00 5.5 7 Sudeste 22 Sur 1.8 -- -- 100
2021-02-03 10:00:00 5 10 Sur 24 Sudeste 2.6 -- -- 100
2021-02-03 09:00:00 4.8 7 Sudeste 22 Sur 2.8 -- -- 100
2021-02-03 08:00:00 4.7 9 Sudeste 22 Sudeste 3.2 -- -- 100
2021-02-03 07:00:00 4.7 10 Sudeste 27 Sudeste 3.4 -- -- 100
2021-02-03 06:00:00 4.7 12 Sudeste 31 Sur 3 -- -- 100
2021-02-03 05:00:00 4.8 12 Sur 30 Sur 2.6 -- -- 100
2021-02-03 04:00:00 4.7 12 Sur 26 Sur 1.6 -- -- 100
2021-02-03 03:00:00 4.7 11 Sur 25 Sur 1 -- -- 100
2021-02-03 02:00:00 4.9 9 Sur 25 Sur 0.2 -- -- 100
2021-02-03 01:00:00 5.1 8 Sur 26 Sur 0.2 -- -- 100
2021-02-03 00:00:00 5.1 8 Sur 26 Sur 0.4 -- -- 100
2021-02-02 23:00:00 5 10 Sur 26 Sur 0 -- -- 100
2021-02-02 22:00:00 5 10 Sur 24 Sur 0 -- -- 100
2021-02-02 21:00:00 5.1 9 Sur 25 Sur 0 -- -- 100
2021-02-02 20:00:00 5.2 7 Sur 21 Sudeste 0 -- -- 100
2021-02-02 19:00:00 5.3 8 Sur 16 Sur 0 -- -- 100
2021-02-02 18:00:00 5.6 4 Sur 14 Sudeste 0 -- -- 100
2021-02-02 17:00:00 6 6 Sudeste 19 Sur 0 -- -- 100
2021-02-02 16:00:00 6.7 6 Sur 19 Sudoeste 0.6 -- -- 100
2021-02-02 15:00:00 6.8 4 Sur 17 Sur 0.2 -- -- 100
2021-02-02 14:00:00 6.9 6 Sur 16 Sur 1 -- -- 100
2021-02-02 13:00:00 6.7 4 Sudoeste 14 Sudoeste 0.6 -- -- 100
2021-02-02 12:00:00 6.4 7 Sudoeste 18 Sudoeste 0.8 -- -- 100
2021-02-02 11:00:00 6.8 8 Sudoeste 18 Sudoeste 0.6 -- -- 100
2021-02-02 10:00:00 6.6 6 Sur 21 Sur 0.8 -- -- 100
2021-02-02 09:00:00 6.3 8 Sudoeste 25 Sudoeste 0.6 -- -- 100
2021-02-02 08:00:00 6.7 9 Sudoeste 19 Sudoeste 0.8 -- -- 100
2021-02-02 07:00:00 6.8 10 Sudoeste 24 Sudoeste 0.8 -- -- 100
2021-02-02 06:00:00 6.9 12 Sudoeste 26 Oeste 0.4 -- -- 100
2021-02-02 05:00:00 6.8 12 Sudoeste 28 Sudoeste 0.4 -- -- 100
2021-02-02 04:00:00 6.9 13 Sudoeste 28 Sudoeste 1.2 -- -- 100
2021-02-02 03:00:00 6.6 11 Sudoeste 20 Sudoeste 0.6 -- -- 100
2021-02-02 02:00:00 6.4 9 Oeste 16 Sudoeste 0.2 -- -- 100
2021-02-02 01:00:00 6.3 9 Sudoeste 16 Sudoeste 0.2 -- -- 100
2021-02-02 00:00:00 6.2 8 Oeste 14 Oeste 0 -- -- 100
2021-02-01 23:00:00 6.1 9 Oeste 18 Sudoeste 0 -- -- 100
2021-02-01 22:00:00 6 13 Sudoeste 27 Sudoeste 0 -- -- 100
2021-02-01 21:00:00 6 17 Sudoeste 29 Oeste 0 -- -- 100
2021-02-01 20:00:00 6.4 18 Oeste 30 Oeste 0 -- -- 100
2021-02-01 19:00:00 6.7 17 Sudoeste 31 Sudoeste 0 -- -- 100
2021-02-01 18:00:00 7 22 Sudoeste 34 Oeste 0 -- -- 100
2021-02-01 17:00:00 7.6 18 Oeste 35 Oeste 0 -- -- 96
2021-02-01 16:00:00 8.7 21 Oeste 34 Oeste 0 -- -- 91
2021-02-01 15:00:00 8.3 21 Oeste 36 Oeste 0 -- -- 90
2021-02-01 14:00:00 9.1 20 Oeste 32 Oeste 0 -- -- 87
2021-02-01 13:00:00 8.8 18 Oeste 32 Oeste 0 -- -- 86
2021-02-01 12:00:00 8.6 14 Oeste 30 Oeste 0 -- -- 89
2021-02-01 11:00:00 7.4 15 Oeste 27 Noroeste 0 -- -- 92
2021-02-01 10:00:00 5.7 10 Sudoeste 20 Sudoeste 0 -- -- 100
2021-02-01 09:00:00 4.5 8 Sur 22 Sudoeste 0 -- -- 100
2021-02-01 08:00:00 4.2 8 Sudoeste 23 Sur 0 -- -- 100
2021-02-01 07:00:00 4.1 9 Sudoeste 25 Sudoeste 0 -- -- 99
2021-02-01 06:00:00 3.9 10 Sudoeste 40 Oeste 0 -- -- 98
2021-02-01 05:00:00 3.9 10 Oeste 30 Oeste 0 -- -- 100
2021-02-01 04:00:00 4.3 13 Sudoeste 27 Sudoeste 0 -- -- 100
2021-02-01 03:00:00 4.9 13 Sudoeste 32 Sudoeste 0 -- -- 100
2021-02-01 02:00:00 5.6 18 Sudoeste 42 Sudoeste 0 -- -- 100
2021-02-01 01:00:00 5.9 20 Sudoeste 46 Oeste 0 -- -- 100
2021-02-01 00:00:00 6.6 26 Oeste 58 Oeste 0.2 -- -- 100
2021-01-31 23:00:00 6.7 22 Oeste 45 Oeste 0 -- -- 100
2021-01-31 22:00:00 6.5 20 Oeste 44 Oeste 0 -- -- 100
2021-01-31 21:00:00 6.8 20 Sudoeste 46 Sudoeste 0 -- -- 100
2021-01-31 20:00:00 8.1 19 Sudoeste 45 Sudoeste 0 -- -- 100
2021-01-31 19:00:00 8.6 21 Sudoeste 44 Sudoeste 2 -- -- 100
2021-01-31 18:00:00 8.7 23 Sudoeste 45 Sudoeste 1.2 -- -- 100
2021-01-31 17:00:00 8.3 27 Sudoeste 46 Sudoeste 1.6 -- -- 100
2021-01-31 16:00:00 8 27 Sudoeste 48 Sudoeste 1 -- -- 100
2021-01-31 15:00:00 7.2 25 Sudoeste 48 Sudoeste 1 -- -- 100
2021-01-31 14:00:00 6.3 21 Sudoeste 42 Sudoeste 1.4 -- -- 100
2021-01-31 13:00:00 5.6 17 Sudoeste 38 Sudoeste 1.4 -- -- 100
2021-01-31 12:00:00 5 22 Sudoeste 41 Sudoeste 1.2 -- -- 100
2021-01-31 11:00:00 4.6 17 Sudoeste 39 Oeste 0.6 -- -- 100
2021-01-31 10:00:00 4.2 22 Sudoeste 39 Sudoeste 0.8 -- -- 100
2021-01-31 09:00:00 3.6 17 Sudoeste 31 Sudoeste 0.4 -- -- 100
2021-01-31 08:00:00 3.8 17 Oeste 39 Oeste 0.2 -- -- 100
2021-01-31 07:00:00 3.8 19 Oeste 48 Oeste 0 -- -- 100
2021-01-31 06:00:00 4.2 25 Noroeste 54 Noroeste 0 -- -- 97
2021-01-31 05:00:00 3.4 18 Noroeste 57 Oeste 0 -- -- 93
2021-01-31 04:00:00 3.5 23 Noroeste 62 Noroeste 0 -- -- 96
2021-01-31 03:00:00 3.5 29 Noroeste 63 Oeste 0 -- -- 92
2021-01-31 02:00:00 2.8 19 Noroeste 66 Oeste 0 -- -- 89
2021-01-31 01:00:00 3.1 20 Oeste 51 Noroeste 0 -- -- 92
2021-01-31 00:00:00 3.3 20 Oeste 56 Oeste 0 -- -- 91
2021-01-30 23:00:00 3.5 19 Oeste 52 Oeste 0 -- -- 93
2021-01-30 22:00:00 3.6 18 Oeste 55 Noroeste 0 -- -- 90
2021-01-30 21:00:00 3.5 21 Oeste 66 Oeste 0 -- -- 90
2021-01-30 20:00:00 3.8 26 Oeste 57 Oeste 0 -- -- 95
2021-01-30 19:00:00 3.8 23 Oeste 51 Oeste 0 -- -- 95
2021-01-30 18:00:00 3.9 21 Oeste 51 Oeste 0 -- -- 89
2021-01-30 17:00:00 4.6 23 Oeste 47 Sudoeste 0 -- -- 96
2021-01-30 16:00:00 5.2 27 Sudoeste 45 Sudoeste 0 -- -- 87
2021-01-30 15:00:00 6.5 26 Sudoeste 53 Sudoeste 0 -- -- 80
2021-01-30 14:00:00 5.3 23 Sudoeste 46 Sudoeste 0 -- -- 98
2021-01-30 13:00:00 4.7 25 Sudoeste 45 Sudoeste 0 -- -- 100
2021-01-30 12:00:00 4.1 22 Sudoeste 44 Oeste 0 -- -- 100
2021-01-30 11:00:00 4.1 21 Sudoeste 44 Sudoeste 0.2 -- -- 100
2021-01-30 10:00:00 4.4 26 Sudoeste 54 Sudoeste 0 -- -- 100
2021-01-30 09:00:00 4.8 26 Sudoeste 47 Oeste 0 -- -- 100
2021-01-30 08:00:00 5.4 24 Sudoeste 50 Sudoeste 0 -- -- 100
2021-01-30 07:00:00 5.8 28 Sudoeste 59 Sudoeste 0.4 -- -- 100
2021-01-30 06:00:00 6.4 24 Sudoeste 53 Sudoeste 1.4 -- -- 100
2021-01-30 05:00:00 5.8 24 Sudoeste 51 Sudoeste 5.2 -- -- 100
2021-01-30 04:00:00 6.1 9 Sur 28 Sur 3.4 -- -- 100
2021-01-30 03:00:00 6.4 12 Sur 26 Sur 1.6 -- -- 100
2021-01-30 02:00:00 6.7 10 Sur 30 Sudoeste 1.2 -- -- 100
2021-01-30 01:00:00 6.5 13 Sudoeste 28 Sur 0.8 -- -- 100
2021-01-30 00:00:00 6.5 12 Sudoeste 26 Oeste 0.4 -- -- 100